createdAt,value
2022-09-29T02:28:19.766Z,35.93
2022-09-29T02:29:08.185Z,35.79
2022-09-29T02:29:51.521Z,35.97
2022-09-29T02:31:26.049Z,35.99
2022-09-29T02:32:15.855Z,35.81
2022-09-29T02:33:13.242Z,35.81
2022-09-29T02:34:11.132Z,35.63
2022-09-29T02:34:55.731Z,35.81
2022-09-29T02:35:42.837Z,35.73
2022-09-29T02:36:29.238Z,35.66
2022-09-29T02:37:34.156Z,35.36
2022-09-29T02:39:18.913Z,35.40
2022-09-29T02:39:50.349Z,35.43
2022-09-29T02:40:21.781Z,35.36
2022-09-29T02:40:53.328Z,35.46
2022-09-29T02:41:24.765Z,35.52
2022-09-29T02:41:56.266Z,35.49
2022-09-29T02:42:27.628Z,35.35
2022-09-29T02:42:59.004Z,35.63
2022-09-29T02:43:30.373Z,35.72
2022-09-29T02:44:01.747Z,35.44
2022-09-29T02:44:33.168Z,35.41
2022-09-29T02:45:04.573Z,35.51
2022-09-29T02:45:35.965Z,35.59
2022-09-29T02:46:07.479Z,35.60
2022-09-29T02:46:38.969Z,35.62
2022-09-29T02:47:10.452Z,35.89
2022-09-29T02:47:41.815Z,35.48
2022-09-29T02:48:13.183Z,35.73
2022-09-29T02:48:44.638Z,35.62
2022-09-29T02:49:16.023Z,35.76
2022-09-29T02:49:47.447Z,35.86
2022-09-29T02:50:18.848Z,35.74
2022-09-29T02:50:50.266Z,35.88
2022-09-29T02:51:21.652Z,35.58
2022-09-29T02:51:53.163Z,35.78
2022-09-29T02:52:24.595Z,35.54
2022-09-29T02:52:56.017Z,35.75
2022-09-29T02:53:27.393Z,35.63
2022-09-29T02:53:58.775Z,35.61
2022-09-29T02:54:30.209Z,35.45
2022-09-29T02:55:01.636Z,35.55
2022-09-29T02:55:33.049Z,35.49
2022-09-29T02:56:04.481Z,35.61
2022-09-29T02:56:35.943Z,35.51
2022-09-29T02:57:07.425Z,35.54
2022-09-29T02:57:38.904Z,35.43
2022-09-29T02:58:10.390Z,35.49
2022-09-29T02:58:46.162Z,35.46
2022-09-29T02:59:19.466Z,35.64
2022-09-29T02:59:50.889Z,35.38
2022-09-29T03:00:22.271Z,35.37
2022-09-29T03:00:53.709Z,35.39
2022-09-29T03:01:25.300Z,35.57
2022-09-29T03:01:56.750Z,35.37
2022-09-29T03:02:28.183Z,35.28
2022-09-29T03:02:59.572Z,35.37
2022-09-29T03:03:31.027Z,35.40
2022-09-29T03:04:04.729Z,35.46
2022-09-29T03:04:36.398Z,35.43
2022-09-29T03:05:07.795Z,35.55
2022-09-29T03:05:39.253Z,35.58
2022-09-29T03:06:10.637Z,35.39
2022-09-29T03:06:42.058Z,35.51
2022-09-29T03:07:13.590Z,35.40
2022-09-29T03:07:44.976Z,35.62
2022-09-29T03:08:16.350Z,35.66
2022-09-29T03:08:47.751Z,35.50
2022-09-29T03:09:19.265Z,35.34
2022-09-29T03:09:50.684Z,35.48
2022-09-29T03:10:22.142Z,35.61
2022-09-29T03:10:53.564Z,35.31
2022-09-29T03:11:24.946Z,35.32
2022-09-29T03:11:56.380Z,35.24
2022-09-29T03:12:27.835Z,35.42
2022-09-29T03:12:59.229Z,35.38
2022-09-29T03:13:30.682Z,35.40
2022-09-29T03:14:02.095Z,35.42
2022-09-29T03:14:33.675Z,35.51
2022-09-29T03:15:05.101Z,35.50
2022-09-29T03:15:36.519Z,35.65
2022-09-29T03:16:07.990Z,35.67
2022-09-29T03:16:39.523Z,35.71
2022-09-29T03:17:10.960Z,35.63
2022-09-29T03:17:42.327Z,35.52
2022-09-29T03:18:13.760Z,35.48
2022-09-29T03:18:45.170Z,35.45
2022-09-29T03:19:16.563Z,35.43
2022-09-29T03:19:48.006Z,35.48
2022-09-29T03:20:19.379Z,35.62
2022-09-29T03:20:50.889Z,35.51
2022-09-29T03:21:22.252Z,35.63
2022-09-29T03:21:53.668Z,35.39
2022-09-29T03:22:25.142Z,35.45
2022-09-29T03:22:56.559Z,35.45
2022-09-29T03:23:28.056Z,35.61
2022-09-29T03:23:59.418Z,35.50
2022-09-29T03:24:30.945Z,35.46
2022-09-29T03:25:02.559Z,35.54
2022-09-29T03:25:33.953Z,35.51
2022-09-29T03:26:05.298Z,35.62
2022-09-29T03:26:36.650Z,35.47
2022-09-29T03:27:08.032Z,35.47
2022-09-29T03:27:39.479Z,35.58
2022-09-29T03:28:10.878Z,35.63
2022-09-29T03:28:42.366Z,35.63
2022-09-29T03:29:13.774Z,35.66
2022-09-29T03:29:45.202Z,35.52
2022-09-29T03:30:16.676Z,35.72
2022-09-29T03:30:48.059Z,35.49
2022-09-29T03:31:19.569Z,35.38
2022-09-29T03:31:51.087Z,35.49
2022-09-29T03:32:22.636Z,35.33
2022-09-29T03:32:54.023Z,35.37
2022-09-29T03:33:25.621Z,35.63
2022-09-29T03:33:57.042Z,35.36
2022-09-29T03:34:28.532Z,35.31
2022-09-29T03:34:59.962Z,35.26
2022-09-29T03:35:31.340Z,35.25
2022-09-29T03:36:02.760Z,35.33
2022-09-29T03:36:34.157Z,35.32
2022-09-29T03:37:05.562Z,35.10
2022-09-29T03:37:36.955Z,35.20
2022-09-29T03:38:08.299Z,35.08
2022-09-29T03:38:39.773Z,35.10
2022-09-29T03:39:11.193Z,35.20
2022-09-29T03:39:42.637Z,35.18
2022-09-29T03:40:14.098Z,35.23
2022-09-29T03:40:45.502Z,34.97
2022-09-29T03:41:16.989Z,35.23
2022-09-29T03:41:48.384Z,34.95
2022-09-29T03:42:19.897Z,35.12
2022-09-29T03:42:51.317Z,35.27
2022-09-29T03:43:22.704Z,35.28
2022-09-29T03:43:54.145Z,35.17
2022-09-29T03:44:25.524Z,35.16
2022-09-29T03:44:56.949Z,35.34
2022-09-29T03:45:28.453Z,35.26
2022-09-29T03:46:00.118Z,35.09
2022-09-29T03:46:31.651Z,35.31
2022-09-29T03:47:03.075Z,35.28
2022-09-29T03:47:34.458Z,35.21
2022-09-29T03:48:06.057Z,35.35
2022-09-29T03:48:37.444Z,35.47
2022-09-29T03:49:08.850Z,35.25
2022-09-29T03:49:40.253Z,35.20
2022-09-29T03:50:11.746Z,35.06
2022-09-29T03:50:43.219Z,35.00
2022-09-29T03:51:14.634Z,35.09
2022-09-29T03:51:46.047Z,35.33
2022-09-29T03:52:17.539Z,35.16
2022-09-29T03:52:48.934Z,35.30
2022-09-29T03:53:20.337Z,35.43
2022-09-29T03:53:51.724Z,35.17
2022-09-29T03:54:23.119Z,35.27
2022-09-29T03:54:54.552Z,35.16
2022-09-29T03:55:25.932Z,35.43
2022-09-29T03:55:57.351Z,35.40
2022-09-29T03:56:28.799Z,35.34
2022-09-29T03:57:00.223Z,35.62
2022-09-29T03:57:31.688Z,35.49
2022-09-29T03:58:03.112Z,35.46
2022-09-29T03:58:34.562Z,35.50
2022-09-29T03:59:05.944Z,35.60
2022-09-29T03:59:38.526Z,35.38
2022-09-29T04:00:12.359Z,35.62
2022-09-29T04:00:43.871Z,35.54
2022-09-29T04:01:15.421Z,35.54
2022-09-29T04:01:46.944Z,35.41
2022-09-29T04:02:18.414Z,35.57
2022-09-29T04:02:49.918Z,35.57
2022-09-29T04:03:21.329Z,35.47
2022-09-29T04:03:52.788Z,35.58
2022-09-29T04:04:24.187Z,35.15
2022-09-29T04:04:55.571Z,35.38
2022-09-29T04:05:27.039Z,35.33
2022-09-29T04:05:58.477Z,35.45
2022-09-29T04:06:29.982Z,35.30
2022-09-29T04:07:01.374Z,35.53
2022-09-29T04:07:32.773Z,35.33
2022-09-29T04:08:04.140Z,35.22
2022-09-29T04:08:35.522Z,35.27
2022-09-29T04:09:06.932Z,35.18
2022-09-29T04:09:38.287Z,35.34
2022-09-29T04:10:09.684Z,35.21
2022-09-29T04:10:41.056Z,35.10
2022-09-29T04:11:12.537Z,35.14
2022-09-29T04:11:43.927Z,35.10
2022-09-29T04:12:15.382Z,35.35
2022-09-29T04:12:46.746Z,35.25
2022-09-29T04:13:20.224Z,35.22
2022-09-29T04:13:51.772Z,35.04
2022-09-29T04:14:23.127Z,34.98
2022-09-29T04:14:54.561Z,35.16
2022-09-29T04:15:25.983Z,35.22
2022-09-29T04:15:57.475Z,35.25
2022-09-29T04:16:28.936Z,35.19
2022-09-29T04:17:00.334Z,35.32
2022-09-29T04:17:31.709Z,35.15
2022-09-29T04:18:03.047Z,35.54
2022-09-29T04:18:34.444Z,35.33
2022-09-29T04:19:05.834Z,35.52
2022-09-29T04:19:37.229Z,35.62
2022-09-29T04:20:08.683Z,35.30
2022-09-29T04:20:40.073Z,35.28
2022-09-29T04:21:11.468Z,35.26
2022-09-29T04:21:42.956Z,35.37
2022-09-29T04:22:14.318Z,35.36
2022-09-29T04:22:45.746Z,35.33
2022-09-29T04:23:17.197Z,35.25
2022-09-29T04:23:48.599Z,35.42
2022-09-29T04:24:20.025Z,35.25
2022-09-29T04:24:51.423Z,35.28
2022-09-29T04:25:22.816Z,35.41
2022-09-29T04:25:54.345Z,35.43
2022-09-29T04:26:25.783Z,35.36
2022-09-29T04:26:57.171Z,34.97
2022-09-29T04:27:28.589Z,35.18
2022-09-29T04:28:00.066Z,34.92
2022-09-29T04:28:31.512Z,35.17
2022-09-29T04:29:02.931Z,35.17
2022-09-29T04:29:34.326Z,35.38
2022-09-29T04:30:05.693Z,35.14
2022-09-29T04:30:37.105Z,35.45
2022-09-29T04:31:08.593Z,35.38
2022-09-29T04:31:40.158Z,35.25
2022-09-29T04:32:11.561Z,35.25
2022-09-29T04:32:42.895Z,35.25
2022-09-29T04:33:14.316Z,35.31
2022-09-29T04:33:45.747Z,35.32
2022-09-29T04:34:19.124Z,35.21
2022-09-29T04:34:50.678Z,35.32
2022-09-29T04:35:22.077Z,35.10
2022-09-29T04:35:53.476Z,34.93
2022-09-29T04:36:24.914Z,34.98
2022-09-29T04:36:56.299Z,34.98
2022-09-29T04:37:27.698Z,34.78
2022-09-29T04:37:59.172Z,34.69
2022-09-29T04:38:30.619Z,34.86
2022-09-29T04:39:02.020Z,34.96
2022-09-29T04:39:33.478Z,34.94
2022-09-29T04:40:04.871Z,35.08
2022-09-29T04:40:36.294Z,35.04
2022-09-29T04:41:07.812Z,34.94
2022-09-29T04:41:39.187Z,35.07
2022-09-29T04:42:10.549Z,34.93
2022-09-29T04:42:41.995Z,35.02
2022-09-29T04:43:13.332Z,34.80
2022-09-29T04:43:44.716Z,34.85
2022-09-29T04:44:16.095Z,34.80
2022-09-29T04:44:47.484Z,34.61
2022-09-29T04:45:18.905Z,34.62
2022-09-29T04:45:50.346Z,34.81
2022-09-29T04:46:22.077Z,35.05
2022-09-29T04:46:53.522Z,35.01
2022-09-29T04:47:24.968Z,35.00
2022-09-29T04:47:56.344Z,34.91
2022-09-29T04:48:27.724Z,34.76
2022-09-29T04:48:59.251Z,35.08
2022-09-29T04:49:30.650Z,34.99
2022-09-29T04:50:02.048Z,34.90
2022-09-29T04:50:33.485Z,35.17
2022-09-29T04:51:04.885Z,34.95
2022-09-29T04:51:36.363Z,34.75
2022-09-29T04:52:07.765Z,34.93
2022-09-29T04:52:39.153Z,34.95
2022-09-29T04:53:10.587Z,35.17
2022-09-29T04:53:42.022Z,35.08
2022-09-29T04:54:13.464Z,35.01
2022-09-29T04:54:44.901Z,35.02
2022-09-29T04:55:16.388Z,34.85
2022-09-29T04:55:47.781Z,35.02
2022-09-29T04:56:19.226Z,35.00
2022-09-29T04:56:50.881Z,35.00
2022-09-29T04:57:22.287Z,34.81
2022-09-29T04:57:53.734Z,35.04
2022-09-29T04:58:25.236Z,35.12
2022-09-29T04:58:56.772Z,35.28
2022-09-29T04:59:28.226Z,35.06
2022-09-29T04:59:59.709Z,35.18
2022-09-29T05:00:31.318Z,35.20
2022-09-29T05:01:02.861Z,35.22
2022-09-29T05:01:34.257Z,35.04
2022-09-29T05:02:05.818Z,35.17
2022-09-29T05:02:37.280Z,35.21
2022-09-29T05:03:08.772Z,35.03
2022-09-29T05:03:40.164Z,34.85
2022-09-29T05:04:11.555Z,34.94
2022-09-29T05:04:42.943Z,34.91
2022-09-29T05:05:14.313Z,34.72
2022-09-29T05:05:45.695Z,34.91
2022-09-29T05:06:17.091Z,34.94
2022-09-29T05:06:48.474Z,34.93
2022-09-29T05:07:19.940Z,34.67
2022-09-29T05:07:51.411Z,34.89
2022-09-29T05:08:22.867Z,35.04
2022-09-29T05:08:54.285Z,34.79
2022-09-29T05:09:28.743Z,34.94
2022-09-29T05:10:02.604Z,34.82
2022-09-29T05:10:34.045Z,34.81
2022-09-29T05:11:05.445Z,34.79
2022-09-29T05:11:36.875Z,34.67
2022-09-29T05:12:08.329Z,34.73
2022-09-29T05:12:39.723Z,34.96
2022-09-29T05:13:11.145Z,34.73
2022-09-29T05:13:42.535Z,34.85
2022-09-29T05:14:13.929Z,34.81
2022-09-29T05:14:45.416Z,34.81
2022-09-29T05:15:16.885Z,35.03
2022-09-29T05:15:48.307Z,34.84
2022-09-29T05:16:19.802Z,34.67
2022-09-29T05:16:51.323Z,35.16
2022-09-29T05:17:22.675Z,35.08
2022-09-29T05:17:54.035Z,34.92
2022-09-29T05:18:25.417Z,34.83
2022-09-29T05:18:56.824Z,34.64
2022-09-29T05:19:28.236Z,34.95
2022-09-29T05:19:59.611Z,34.83
2022-09-29T05:20:39.855Z,34.73
2022-09-29T05:21:27.628Z,34.80
2022-09-29T05:22:00.231Z,34.81
2022-09-29T05:22:31.638Z,34.91
2022-09-29T05:23:03.041Z,35.07
2022-09-29T05:23:34.458Z,34.81
2022-09-29T05:24:05.850Z,34.99
2022-09-29T05:24:37.270Z,35.04
2022-09-29T05:25:08.688Z,34.63
2022-09-29T05:25:40.100Z,34.90
2022-09-29T05:26:11.574Z,34.71
2022-09-29T05:26:42.999Z,34.60
2022-09-29T05:27:14.462Z,34.66
2022-09-29T05:27:45.975Z,34.91
2022-09-29T05:28:17.368Z,34.80
2022-09-29T05:28:48.767Z,34.77
2022-09-29T05:29:20.362Z,34.76
2022-09-29T05:29:51.916Z,34.73
2022-09-29T05:30:23.326Z,34.53
2022-09-29T05:30:54.703Z,34.66
2022-09-29T05:31:26.157Z,34.75
2022-09-29T05:31:57.631Z,34.62
2022-09-29T05:32:29.137Z,34.56
2022-09-29T05:33:00.517Z,34.81
2022-09-29T05:33:31.936Z,34.95
2022-09-29T05:34:03.498Z,34.70
2022-09-29T05:34:34.908Z,34.58
2022-09-29T05:35:06.323Z,34.65
2022-09-29T05:35:37.718Z,34.58
2022-09-29T05:36:09.148Z,34.64
2022-09-29T05:36:40.562Z,34.70
2022-09-29T05:37:11.965Z,34.70
2022-09-29T05:37:43.444Z,34.60
2022-09-29T05:38:14.887Z,34.51
2022-09-29T05:38:46.391Z,34.50
2022-09-29T05:39:17.779Z,34.79
2022-09-29T05:39:49.162Z,34.65
2022-09-29T05:40:20.612Z,34.71
2022-09-29T05:40:52.124Z,34.57
2022-09-29T05:41:23.676Z,34.55
2022-09-29T05:41:59.405Z,34.63
2022-09-29T05:42:31.101Z,34.79
2022-09-29T05:43:02.591Z,34.83
2022-09-29T05:43:34.008Z,34.60
2022-09-29T05:44:05.406Z,34.69
2022-09-29T05:44:36.771Z,34.94
2022-09-29T05:45:08.183Z,34.69
2022-09-29T05:45:39.747Z,34.74
2022-09-29T05:46:11.346Z,34.64
2022-09-29T05:46:42.889Z,34.70
2022-09-29T05:47:14.296Z,34.65
2022-09-29T05:47:45.806Z,34.57
2022-09-29T05:48:17.230Z,34.58
2022-09-29T05:48:48.666Z,34.71
2022-09-29T05:49:20.125Z,34.56
2022-09-29T05:49:51.728Z,34.52
2022-09-29T05:50:23.222Z,34.84
2022-09-29T05:50:54.616Z,34.65
2022-09-29T05:51:26.046Z,34.57
2022-09-29T05:51:57.496Z,34.75
2022-09-29T05:52:28.958Z,34.62
2022-09-29T05:53:00.339Z,34.84
2022-09-29T05:53:31.736Z,34.53
2022-09-29T05:54:03.191Z,34.85
2022-09-29T05:54:34.608Z,34.73
2022-09-29T05:55:06.009Z,34.75
2022-09-29T05:55:37.375Z,34.97
2022-09-29T05:56:08.818Z,34.83
2022-09-29T05:56:45.030Z,34.79
2022-09-29T05:57:16.774Z,34.82
2022-09-29T05:57:48.204Z,34.76
2022-09-29T05:58:19.655Z,34.68
2022-09-29T05:58:51.001Z,34.47
2022-09-29T05:59:22.420Z,34.69
2022-09-29T05:59:53.838Z,34.65
2022-09-29T06:00:25.318Z,34.86
2022-09-29T06:00:56.811Z,34.78
2022-09-29T06:01:28.352Z,34.77
2022-09-29T06:01:59.910Z,35.02
2022-09-29T06:02:31.413Z,34.95
2022-09-29T06:03:02.821Z,34.99
2022-09-29T06:03:34.276Z,34.92
2022-09-29T06:04:05.694Z,34.95
2022-09-29T06:04:40.650Z,34.99
2022-09-29T06:05:12.298Z,34.86
2022-09-29T06:05:43.635Z,34.76
2022-09-29T06:06:15.056Z,35.05
2022-09-29T06:07:32.806Z,34.87
2022-09-29T06:08:03.977Z,35.20
2022-09-29T06:08:35.165Z,34.80
2022-09-29T06:09:06.315Z,35.04
2022-09-29T06:09:37.496Z,34.93
2022-09-29T06:10:08.673Z,35.00
2022-09-29T06:10:39.834Z,34.86
2022-09-29T06:11:11.100Z,34.89
2022-09-29T06:11:42.582Z,34.88
2022-09-29T06:12:14.002Z,34.57
2022-09-29T06:12:45.460Z,34.79
2022-09-29T06:13:16.906Z,34.62
2022-09-29T06:13:48.298Z,34.69
2022-09-29T06:14:19.772Z,34.64
2022-09-29T06:14:51.230Z,34.77
2022-09-29T06:15:22.671Z,34.73
2022-09-29T06:15:54.184Z,35.11
2022-09-29T06:16:25.702Z,34.91
2022-09-29T06:16:57.269Z,35.04
2022-09-29T06:17:28.742Z,34.83
2022-09-29T06:18:00.254Z,35.12
2022-09-29T06:18:31.766Z,34.91
2022-09-29T06:19:03.255Z,34.99
2022-09-29T06:19:34.748Z,35.00
2022-09-29T06:20:06.271Z,34.94
2022-09-29T06:20:37.727Z,35.04
2022-09-29T06:21:09.113Z,35.04
2022-09-29T06:21:40.712Z,35.28
2022-09-29T06:22:12.152Z,35.17
2022-09-29T06:22:43.585Z,35.18
2022-09-29T06:23:15.029Z,35.02
2022-09-29T06:23:46.455Z,35.13
2022-09-29T06:24:17.885Z,35.29
2022-09-29T06:24:49.338Z,35.04
2022-09-29T06:25:20.746Z,35.07
2022-09-29T06:25:52.216Z,35.18
2022-09-29T06:26:24.449Z,35.08
2022-09-29T06:26:56.181Z,35.24
2022-09-29T06:27:27.706Z,35.08
2022-09-29T06:27:59.160Z,35.09
2022-09-29T06:28:30.753Z,35.07
2022-09-29T06:29:02.410Z,35.08
2022-09-29T06:29:33.898Z,35.05
2022-09-29T06:30:05.367Z,35.09
2022-09-29T06:30:37.022Z,35.23
2022-09-29T06:31:08.493Z,35.05
2022-09-29T06:31:40.011Z,35.03
2022-09-29T06:32:11.607Z,35.17
2022-09-29T06:32:43.162Z,34.99
2022-09-29T06:33:14.645Z,35.24
2022-09-29T06:33:46.140Z,35.12
2022-09-29T06:34:17.550Z,35.18
2022-09-29T06:34:48.967Z,35.17
2022-09-29T06:35:20.429Z,35.08
2022-09-29T06:35:51.902Z,35.33
2022-09-29T06:36:23.552Z,35.22
2022-09-29T06:36:55.046Z,35.50
2022-09-29T06:37:26.550Z,35.31
2022-09-29T06:37:57.974Z,35.03
2022-09-29T06:38:29.420Z,35.41
2022-09-29T06:39:00.852Z,35.28
2022-09-29T06:39:32.225Z,35.30
2022-09-29T06:40:05.736Z,35.24
2022-09-29T06:40:40.432Z,35.19
2022-09-29T06:41:12.020Z,35.18
2022-09-29T06:41:43.546Z,35.46
2022-09-29T06:42:14.928Z,35.35
2022-09-29T06:42:46.439Z,35.22
2022-09-29T06:43:17.857Z,35.16
2022-09-29T06:43:49.253Z,35.11
2022-09-29T06:44:20.738Z,35.12
2022-09-29T06:44:52.127Z,35.30
2022-09-29T06:45:23.587Z,35.25
2022-09-29T06:45:55.058Z,35.13
2022-09-29T06:46:26.530Z,35.36
2022-09-29T06:46:57.920Z,35.15
2022-09-29T06:47:29.312Z,35.18
2022-09-29T06:48:00.811Z,35.24
2022-09-29T06:48:32.275Z,35.13
2022-09-29T06:49:03.723Z,35.33
2022-09-29T06:49:35.203Z,35.30
2022-09-29T06:50:18.811Z,35.17
2022-09-29T06:51:07.391Z,35.19
2022-09-29T06:51:45.874Z,35.12
2022-09-29T06:52:21.294Z,35.11
2022-09-29T06:53:03.321Z,34.96
2022-09-29T06:53:38.579Z,35.05
2022-09-29T06:54:12.362Z,35.08
2022-09-29T06:54:44.171Z,35.14
2022-09-29T06:55:15.551Z,35.29
2022-09-29T06:55:47.042Z,35.29
2022-09-29T06:56:18.466Z,35.32
2022-09-29T06:56:49.939Z,35.09
2022-09-29T06:57:21.348Z,35.18
2022-09-29T06:57:52.747Z,35.20
2022-09-29T06:58:24.171Z,35.11
2022-09-29T06:58:55.613Z,35.07
2022-09-29T06:59:27.017Z,35.24
2022-09-29T06:59:58.505Z,35.29
2022-09-29T07:00:30.014Z,35.40
2022-09-29T07:01:01.592Z,35.42
2022-09-29T07:01:33.154Z,35.19
2022-09-29T07:02:04.619Z,35.38
2022-09-29T07:02:36.123Z,35.16
2022-09-29T07:03:07.574Z,35.11
2022-09-29T07:03:39.032Z,35.08
2022-09-29T07:04:10.523Z,35.17
2022-09-29T07:04:41.983Z,35.15
2022-09-29T07:05:13.495Z,35.26
2022-09-29T07:05:52.793Z,35.22
2022-09-29T07:06:33.882Z,35.15
2022-09-29T07:07:05.324Z,35.06
2022-09-29T07:07:36.760Z,35.07
2022-09-29T07:08:08.236Z,35.11
2022-09-29T07:08:39.657Z,35.10
2022-09-29T07:09:11.063Z,35.30
2022-09-29T07:09:42.469Z,35.29
2022-09-29T07:10:13.955Z,35.25
2022-09-29T07:10:45.373Z,35.09
2022-09-29T07:11:16.803Z,35.21
2022-09-29T07:11:48.280Z,35.12
2022-09-29T07:12:19.696Z,35.02
2022-09-29T07:12:51.175Z,35.12
2022-09-29T07:13:22.616Z,35.11
2022-09-29T07:13:54.907Z,35.35
2022-09-29T07:14:26.684Z,35.20
2022-09-29T07:14:58.125Z,35.23
2022-09-29T07:15:29.520Z,35.24
2022-09-29T07:16:00.946Z,35.31
2022-09-29T07:16:32.392Z,35.06
2022-09-29T07:17:03.895Z,35.04
2022-09-29T07:17:35.374Z,35.06
2022-09-29T07:18:06.812Z,35.17
2022-09-29T07:18:38.337Z,35.30
2022-09-29T07:19:09.786Z,35.08
2022-09-29T07:19:41.223Z,35.21
2022-09-29T07:20:12.659Z,35.22
2022-09-29T07:20:44.105Z,35.30
2022-09-29T07:21:15.638Z,35.20
2022-09-29T07:21:47.093Z,35.21
2022-09-29T07:22:18.600Z,35.29
2022-09-29T07:22:50.012Z,35.38
2022-09-29T07:23:21.482Z,35.00
2022-09-29T07:23:52.878Z,35.02
2022-09-29T07:24:24.291Z,35.21
2022-09-29T07:24:55.711Z,35.12
2022-09-29T07:25:49.935Z,35.17
2022-09-29T07:26:18.538Z,34.97
2022-09-29T07:26:50.020Z,35.23
2022-09-29T07:27:21.459Z,35.24
2022-09-29T07:27:52.899Z,35.11
2022-09-29T07:28:24.337Z,35.13
2022-09-29T07:28:55.718Z,35.20
2022-09-29T07:29:27.094Z,35.23
2022-09-29T07:30:03.567Z,35.09
2022-09-29T07:30:40.567Z,35.19
2022-09-29T07:31:15.294Z,35.28
2022-09-29T07:31:51.927Z,35.07
2022-09-29T07:32:28.125Z,35.04
2022-09-29T07:33:02.515Z,35.08
2022-09-29T07:33:38.973Z,35.09
2022-09-29T07:34:10.801Z,35.14
2022-09-29T07:34:42.265Z,35.24
2022-09-29T07:35:13.668Z,35.29
2022-09-29T07:35:45.139Z,35.31
2022-09-29T07:36:16.542Z,35.24
2022-09-29T07:36:47.979Z,35.14
2022-09-29T07:37:19.495Z,35.14
2022-09-29T07:37:50.884Z,35.04
2022-09-29T07:38:22.403Z,35.24
2022-09-29T07:38:53.807Z,35.21
2022-09-29T07:39:25.185Z,35.40
2022-09-29T07:39:56.608Z,35.27
2022-09-29T07:40:28.044Z,35.15
2022-09-29T07:40:59.515Z,35.20
2022-09-29T07:41:30.948Z,35.44
2022-09-29T07:42:06.123Z,35.25
2022-09-29T07:42:39.927Z,35.20
2022-09-29T07:43:11.371Z,35.24
2022-09-29T07:43:42.818Z,35.28
2022-09-29T07:44:14.261Z,35.27
2022-09-29T07:44:50.123Z,35.11
2022-09-29T07:45:23.620Z,35.32
2022-09-29T07:45:55.120Z,35.16
2022-09-29T07:46:26.835Z,35.22
2022-09-29T07:46:58.339Z,35.13
2022-09-29T07:47:29.779Z,35.32
2022-09-29T07:48:01.234Z,35.20
2022-09-29T07:48:32.664Z,35.12
2022-09-29T07:49:04.064Z,35.09
2022-09-29T07:49:35.469Z,35.37
2022-09-29T07:50:06.979Z,35.20
2022-09-29T07:50:38.491Z,35.21
2022-09-29T07:51:09.961Z,35.20
2022-09-29T07:51:41.434Z,35.25
2022-09-29T07:52:12.863Z,35.33
2022-09-29T07:52:44.401Z,35.44
2022-09-29T07:53:15.782Z,35.36
2022-09-29T07:53:47.231Z,35.37
2022-09-29T07:54:18.654Z,35.28
2022-09-29T07:54:50.034Z,35.38
2022-09-29T07:55:21.437Z,35.37
2022-09-29T07:55:52.857Z,35.35
2022-09-29T07:56:24.253Z,35.30
2022-09-29T07:56:55.678Z,35.49
2022-09-29T07:57:27.083Z,35.28
2022-09-29T07:57:58.641Z,35.39
2022-09-29T07:58:30.041Z,35.19
2022-09-29T07:59:01.488Z,35.41
2022-09-29T07:59:32.884Z,35.32
2022-09-29T08:00:04.319Z,35.51
2022-09-29T08:00:35.766Z,35.32
2022-09-29T08:01:07.245Z,35.32
2022-09-29T08:01:38.711Z,35.38
2022-09-29T08:02:10.190Z,35.34
2022-09-29T08:02:41.756Z,35.26
2022-09-29T08:03:13.218Z,35.32
2022-09-29T08:03:44.651Z,35.35
2022-09-29T08:04:16.118Z,35.28
2022-09-29T08:04:47.494Z,35.25
2022-09-29T08:05:18.880Z,35.35
2022-09-29T08:05:50.266Z,35.19
2022-09-29T08:06:21.658Z,35.42
2022-09-29T08:06:53.083Z,35.19
2022-09-29T08:07:24.464Z,35.28
2022-09-29T08:07:55.936Z,35.59
2022-09-29T08:08:27.390Z,35.47
2022-09-29T08:09:04.238Z,35.21
2022-09-29T08:09:41.224Z,35.31
2022-09-29T08:10:17.479Z,35.32
2022-09-29T08:10:53.353Z,35.31
2022-09-29T08:11:30.802Z,35.42
2022-09-29T08:12:08.188Z,35.36
2022-09-29T08:12:43.948Z,35.30
2022-09-29T08:13:15.978Z,35.21
2022-09-29T08:13:47.408Z,35.29
2022-09-29T08:14:19.073Z,35.46
2022-09-29T08:14:50.583Z,35.47
2022-09-29T08:15:22.018Z,35.37
2022-09-29T08:15:53.468Z,35.25
2022-09-29T08:16:24.924Z,35.31
2022-09-29T08:16:56.498Z,35.42
2022-09-29T08:17:27.957Z,35.37
2022-09-29T08:17:59.496Z,35.25
2022-09-29T08:18:30.983Z,35.42
2022-09-29T08:19:02.577Z,35.37
2022-09-29T08:19:34.026Z,35.38
2022-09-29T08:20:05.490Z,35.38
2022-09-29T08:20:36.894Z,35.29
2022-09-29T08:21:08.293Z,35.34
2022-09-29T08:21:39.796Z,35.24
2022-09-29T08:22:11.263Z,35.20
2022-09-29T08:22:42.827Z,35.49
2022-09-29T08:23:14.353Z,35.25
2022-09-29T08:23:45.824Z,35.33
2022-09-29T08:24:17.291Z,35.32
2022-09-29T08:24:48.800Z,35.30
2022-09-29T08:25:20.164Z,35.23
2022-09-29T08:26:00.063Z,35.34
2022-09-29T08:26:42.035Z,35.23
2022-09-29T08:27:19.066Z,35.51
2022-09-29T08:27:55.577Z,35.45
2022-09-29T08:28:31.918Z,35.47
2022-09-29T08:29:08.124Z,35.31
2022-09-29T08:29:46.394Z,35.47
2022-09-29T08:30:18.296Z,35.34
2022-09-29T08:30:49.728Z,35.39
2022-09-29T08:31:21.214Z,35.57
2022-09-29T08:31:52.785Z,35.66
2022-09-29T08:32:24.201Z,35.54
2022-09-29T08:32:55.626Z,35.49
2022-09-29T08:33:27.179Z,35.61
2022-09-29T08:33:58.653Z,35.53
2022-09-29T08:34:30.111Z,35.38
2022-09-29T08:35:01.529Z,35.56
2022-09-29T08:35:32.928Z,35.42
2022-09-29T08:36:04.669Z,35.40
2022-09-29T08:36:36.094Z,35.48
2022-09-29T08:37:07.646Z,35.51
2022-09-29T08:37:39.023Z,35.53
2022-09-29T08:38:10.459Z,35.50
2022-09-29T08:38:41.954Z,35.27
2022-09-29T08:39:13.391Z,35.34
2022-09-29T08:39:44.761Z,35.45
2022-09-29T08:40:16.181Z,35.37
2022-09-29T08:40:47.654Z,35.32
2022-09-29T08:41:19.198Z,35.63
2022-09-29T08:41:50.619Z,35.41
2022-09-29T08:42:22.133Z,35.38
2022-09-29T08:42:53.559Z,35.46
2022-09-29T08:43:32.900Z,35.49
2022-09-29T08:44:06.645Z,35.55
2022-09-29T08:44:39.522Z,35.68
2022-09-29T08:45:16.218Z,35.45
2022-09-29T08:45:58.509Z,35.38
2022-09-29T08:46:35.771Z,35.47
2022-09-29T08:47:10.805Z,35.41
2022-09-29T08:47:47.437Z,35.47
2022-09-29T08:48:23.183Z,35.70
2022-09-29T08:48:58.648Z,35.71
2022-09-29T08:49:33.490Z,35.42
2022-09-29T08:50:05.141Z,35.40
2022-09-29T08:50:36.617Z,35.43
2022-09-29T08:51:08.106Z,35.71
2022-09-29T08:51:42.741Z,35.56
2022-09-29T08:52:17.155Z,35.62
2022-09-29T08:52:52.458Z,35.55
2022-09-29T08:53:28.843Z,35.53
2022-09-29T08:54:03.573Z,35.78
2022-09-29T08:54:39.436Z,35.63
2022-09-29T08:55:19.100Z,35.72
2022-09-29T08:55:52.497Z,35.47
2022-09-29T08:56:23.921Z,35.65
2022-09-29T08:56:55.421Z,35.75
2022-09-29T08:57:26.942Z,35.83
2022-09-29T08:57:58.420Z,35.61
2022-09-29T08:58:29.848Z,35.46
2022-09-29T08:59:01.271Z,35.75
2022-09-29T08:59:32.746Z,35.62
2022-09-29T09:00:04.162Z,35.51
2022-09-29T09:00:35.624Z,35.70
2022-09-29T09:01:07.141Z,35.49
2022-09-29T09:01:38.658Z,35.66
2022-09-29T09:02:10.165Z,35.75
2022-09-29T09:02:41.746Z,35.48
2022-09-29T09:03:13.212Z,35.59
2022-09-29T09:03:44.716Z,35.54
2022-09-29T09:04:16.111Z,35.58
2022-09-29T09:04:47.557Z,35.61
2022-09-29T09:05:18.982Z,35.60
2022-09-29T09:05:50.388Z,35.66
2022-09-29T09:06:21.926Z,35.55
2022-09-29T09:06:53.380Z,35.64
2022-09-29T09:07:24.800Z,35.49
2022-09-29T09:07:59.237Z,35.80
2022-09-29T09:08:33.462Z,35.70
2022-09-29T09:09:04.965Z,35.56
2022-09-29T09:09:36.407Z,35.71
2022-09-29T09:10:07.835Z,35.64
2022-09-29T09:10:39.410Z,35.80
2022-09-29T09:11:10.835Z,35.60
2022-09-29T09:11:42.325Z,35.79
2022-09-29T09:12:13.731Z,35.83
2022-09-29T09:12:45.201Z,35.71
2022-09-29T09:13:16.722Z,35.74
2022-09-29T09:13:48.175Z,35.66
2022-09-29T09:14:19.691Z,35.49
2022-09-29T09:14:51.117Z,35.56
2022-09-29T09:15:22.571Z,35.79
2022-09-29T09:15:54.031Z,35.68
2022-09-29T09:16:25.479Z,35.68
2022-09-29T09:16:57.007Z,35.82
2022-09-29T09:17:28.431Z,35.70
2022-09-29T09:17:59.883Z,35.76
2022-09-29T09:18:31.374Z,35.68
2022-09-29T09:19:04.710Z,35.79
2022-09-29T09:19:36.729Z,35.71
2022-09-29T09:20:08.194Z,35.74
2022-09-29T09:20:39.721Z,35.56
2022-09-29T09:21:11.118Z,35.77
2022-09-29T09:21:42.525Z,35.85
2022-09-29T09:22:13.943Z,35.73
2022-09-29T09:22:45.316Z,35.67
2022-09-29T09:23:16.747Z,35.75
2022-09-29T09:23:48.147Z,35.74
2022-09-29T09:24:21.576Z,35.75
2022-09-29T09:24:55.461Z,35.82
2022-09-29T09:25:26.903Z,35.95